Casper, WY (82601)

6:09 AM MST on February 07, 2016 (GMT -0700)
Casper Mountain Foothills | | Change Station
CLOSE
Current Station
Personal Weather Station
Location: Casper, WY
Elevation: 5334 ft
Nearby Weather Stations

Elev 5334 ft 42.83 °N, 106.31 °W | Updated 4 minutes ago

Partly Cloudy
Partly Cloudy
25.1 °F
Feels Like 25 °F
N
0.0
Wind Variable Wind from NW
Gusts 0.0 mph

Today
High -- | Low -- °F
--% Chance of Precip.
Yesterday
High -- | Low -- °F
Precip. -- in
Pressure 30.40 in
Visibility 10.0 miles
Clouds Overcast 6000 ft
Windchill 25 °F
Dew Point 16 °F
Humidity 67%
Rainfall 0.00 in
Snow Depth Not available.
7:13 AM 5:25 PM
Waning Crescent, 2% visible
METAR KCPR 071253Z 27004KT 10SM OVC060 M11/M14 A3026 RMK AO2 SLP293 T11111144
Pressure 30.40 in
Visibility 10.0 miles
Clouds Overcast 6000 ft
Windchill 25 °F
Dew Point 16 °F
Humidity 67%
Rainfall 0.00 in
Snow Depth Not available.
7:13 AM 5:25 PM
Waning Crescent, 2% visible
METAR KCPR 071253Z 27004KT 10SM OVC060 M11/M14 A3026 RMK AO2 SLP293 T11111144

10-Day Weather Forecast

Almanac

Astronomy

Feb. 07, 2016 Rise Set
Actual Time
Civil Twilight
Nautical Twilight
Astronomical Twilight
Moon
Length of Visible Light
Length of Day
Tomorrow will be .
, % of the Moon is Illuminated

Today's Extremes

State Highs State Lows

Community

WunderPhotos

Upload Photos

1,891,189 photos uploaded!

WunderBlog® & News

Nearby

Air Quality

  Air Quality AQ Index Pollutant
Not available.

Snow Depth

Station Depth Elevation

Earthquake Activity

City Distance Mag. Time & Date
Minimum magnitude displayed is 2.5.

Coastal Water Temperatures

Place Temperature

Stations

Nearby Weather Stations

Station Location Temp. Windchill Dew Point Humidity Wind Precip. Elev Updated Type
                   

Watches & Warnings

There are currently no watches in effect.